Terminal Aerodrome Forecast
Issued by NWS

Home | Current Version | Previous Version | Graphics & Text | Print | Product List | Glossary Off
Versions: 1 2 3 4 5 6 7 8 9 10 11 12 13 14 15 16

000
FTUS43 KOAX 291132
TAFCDR
TAF
KCDR 291132Z 2912/3012 VRB05KT P6SM SCT100
      TEMPO 2912/2915 2SM BR
     FM291800 14008KT P6SM BKN100
     FM300000 20005KT P6SM VCTS BKN100CB
     FM300500 20003KT P6SM BKN100=

USA.gov is the U.S. government's official web portal to all federal, state and local government web resources and services.